createdAt,value
2019-04-11T03:15:28.729Z,15.83
2019-04-11T03:17:46.147Z,14.53
2019-04-11T03:20:23.950Z,16.67
2019-04-11T03:22:54.154Z,15.67
2019-04-11T03:25:17.743Z,14.97
2019-04-11T03:27:47.445Z,14.43
2019-04-11T03:30:23.957Z,15.40
2019-04-11T03:33:50.225Z,13.07
2019-04-11T03:38:17.474Z,14.50
2019-04-11T03:40:36.548Z,15.07
2019-04-11T03:43:06.126Z,13.57
2019-04-11T03:45:43.451Z,14.63
2019-04-11T03:48:11.029Z,13.87
2019-04-11T03:50:27.995Z,13.80
2019-04-11T03:52:56.322Z,14.90
2019-04-11T03:55:28.409Z,13.77
2019-04-11T03:57:59.223Z,14.60
2019-04-11T04:00:35.436Z,14.80
2019-04-11T04:03:01.385Z,14.40
2019-04-11T04:05:34.045Z,15.20
2019-04-11T04:08:03.854Z,14.17
2019-04-11T04:10:34.049Z,13.43
2019-04-11T04:13:05.376Z,12.40
2019-04-11T04:16:00.273Z,13.53
2019-04-11T04:18:45.780Z,14.63
2019-04-11T04:21:33.257Z,13.10
2019-04-11T04:24:04.083Z,14.20
2019-04-11T04:26:35.465Z,14.30
2019-04-11T04:29:07.509Z,14.73
2019-04-11T04:31:38.553Z,19.80
2019-04-11T04:34:09.398Z,12.83
2019-04-11T04:36:40.314Z,14.53
2019-04-11T04:39:10.676Z,14.50
2019-04-11T04:41:51.919Z,13.93
2019-04-11T04:44:12.662Z,13.10
2019-04-11T04:46:55.559Z,13.67
2019-04-11T04:49:13.210Z,13.10
2019-04-11T04:51:43.698Z,14.53
2019-04-11T04:54:14.199Z,13.73
2019-04-11T04:56:45.324Z,13.50
2019-04-11T04:59:16.187Z,13.27
2019-04-11T05:01:46.331Z,13.70
2019-04-11T05:04:16.306Z,13.07
2019-04-11T05:06:48.170Z,14.03
2019-04-11T05:09:16.096Z,12.60
2019-04-11T05:11:46.524Z,13.40
2019-04-11T05:14:16.369Z,13.50
2019-04-11T05:16:46.114Z,13.60
2019-04-11T05:19:15.210Z,14.23
2019-04-11T05:21:44.135Z,13.43
2019-04-11T05:24:13.120Z,13.80
2019-04-11T05:26:42.178Z,13.40
2019-04-11T05:29:11.225Z,14.37
2019-04-11T05:31:41.363Z,14.13
2019-04-11T05:34:10.400Z,13.13
2019-04-11T05:36:39.323Z,14.47
2019-04-11T05:39:08.863Z,13.30
2019-04-11T05:41:41.771Z,15.30
2019-04-11T05:44:10.873Z,14.73
2019-04-11T05:46:48.918Z,13.97
2019-04-11T05:49:20.240Z,13.13
2019-04-11T05:51:58.616Z,13.80
2019-04-11T05:54:30.654Z,12.40
2019-04-11T05:57:01.313Z,12.77
2019-04-11T05:59:30.701Z,13.67
2019-04-11T06:02:09.272Z,13.77
2019-04-11T06:04:42.817Z,15.90
2019-04-11T06:07:40.036Z,20.63
2019-04-11T06:10:12.820Z,15.30
2019-04-11T06:13:10.070Z,13.10
2019-04-11T06:15:43.968Z,14.53
2019-04-11T06:18:35.346Z,16.03
2019-04-11T06:21:09.509Z,14.43
2019-04-11T06:24:14.087Z,16.17
2019-04-11T06:27:02.352Z,14.20
2019-04-11T06:29:39.326Z,13.27
2019-04-11T06:32:26.003Z,13.23
2019-04-11T06:34:59.958Z,13.50
2019-04-11T06:38:00.702Z,14.87
2019-04-11T06:40:35.004Z,14.13
2019-04-11T06:43:28.877Z,13.70
2019-04-11T06:46:31.941Z,13.07
2019-04-11T06:49:28.920Z,13.20
2019-04-11T06:52:00.370Z,13.43
2019-04-11T06:54:52.460Z,15.07
2019-04-11T06:57:23.624Z,15.17
2019-04-11T06:59:52.838Z,14.60
2019-04-11T07:02:24.516Z,13.67
2019-04-11T07:04:55.527Z,13.50
2019-04-11T07:07:28.530Z,13.87
2019-04-11T07:10:04.579Z,13.90
2019-04-11T07:13:11.851Z,13.70
2019-04-11T07:15:50.530Z,13.63
2019-04-11T07:18:37.818Z,15.67
2019-04-11T07:21:09.011Z,13.53
2019-04-11T07:23:56.021Z,14.83
2019-04-11T07:26:42.167Z,13.23
2019-04-11T07:29:31.432Z,13.53
2019-04-11T07:32:18.150Z,14.50
2019-04-11T07:35:05.286Z,14.40
2019-04-11T07:37:38.910Z,14.40
2019-04-11T07:40:29.435Z,14.73
2019-04-11T07:43:13.552Z,12.70
2019-04-11T07:46:00.305Z,13.23
2019-04-11T07:48:40.403Z,13.97
2019-04-11T07:51:17.903Z,13.87
2019-04-11T07:53:50.158Z,14.90
2019-04-11T07:56:54.967Z,14.83
2019-04-11T07:59:39.692Z,14.50
2019-04-11T08:02:37.710Z,15.00
2019-04-11T08:05:36.657Z,14.50
2019-04-11T08:08:32.294Z,15.43
2019-04-11T08:11:20.661Z,15.87
2019-04-11T08:14:10.484Z,14.90
2019-04-11T08:16:59.971Z,14.10
2019-04-11T08:19:46.915Z,15.60
2019-04-11T08:22:21.327Z,14.00
2019-04-11T08:25:13.997Z,12.73
2019-04-11T08:27:58.305Z,15.03
2019-04-11T08:30:26.663Z,14.43
2019-04-11T08:32:58.281Z,15.70
2019-04-11T08:35:46.548Z,15.93
2019-04-11T08:38:18.631Z,14.00
2019-04-11T08:40:55.731Z,14.93
2019-04-11T08:43:27.091Z,15.80
2019-04-11T08:46:00.390Z,16.20
2019-04-11T08:48:30.824Z,15.97
2019-04-11T08:51:05.072Z,15.00
2019-04-11T08:53:53.083Z,14.70
2019-04-11T08:56:23.078Z,14.37
2019-04-11T08:59:43.986Z,14.43
2019-04-11T09:02:37.300Z,14.70
2019-04-11T09:05:27.353Z,16.70
2019-04-11T09:08:16.375Z,15.63
2019-04-11T09:11:17.446Z,15.63
2019-04-11T09:14:17.903Z,17.17
2019-04-11T09:16:59.205Z,17.00
2019-04-11T09:19:51.454Z,16.07
2019-04-11T09:22:31.777Z,16.80
2019-04-11T09:25:30.389Z,17.03
2019-04-11T09:28:25.194Z,16.50
2019-04-11T09:31:13.234Z,18.47
2019-04-11T09:33:59.850Z,18.00
2019-04-11T09:36:45.490Z,16.70
2019-04-11T09:39:21.391Z,18.43
2019-04-11T09:42:03.298Z,17.73
2019-04-11T09:44:49.147Z,16.67
2019-04-11T09:47:36.281Z,17.37
2019-04-11T09:50:07.938Z,17.67
2019-04-11T09:52:42.015Z,17.80
2019-04-11T09:55:25.705Z,19.50
2019-04-11T09:57:58.635Z,18.30
2019-04-11T10:00:47.375Z,19.33
2019-04-11T10:03:25.674Z,18.87
2019-04-11T10:06:23.830Z,17.47
2019-04-11T10:08:56.030Z,18.60
2019-04-11T10:11:59.159Z,17.23
2019-04-11T10:14:29.836Z,18.77
2019-04-11T10:17:16.949Z,17.80
2019-04-11T10:19:54.326Z,17.60
2019-04-11T10:22:43.792Z,17.00
2019-04-11T10:25:16.867Z,18.80
2019-04-11T10:28:04.892Z,19.33
2019-04-11T10:30:55.896Z,18.97
2019-04-11T10:33:44.885Z,18.63
2019-04-11T10:36:39.235Z,18.80
2019-04-11T10:39:29.063Z,18.40
2019-04-11T10:42:04.330Z,24.50
2019-04-11T10:44:42.311Z,22.47
2019-04-11T10:47:17.583Z,21.27
2019-04-11T10:50:21.715Z,18.97
2019-04-11T10:53:02.597Z,21.50
2019-04-11T10:56:02.663Z,21.07
2019-04-11T10:58:37.163Z,21.10
2019-04-11T11:01:24.988Z,20.47
2019-04-11T11:04:32.586Z,18.63
2019-04-11T11:07:09.698Z,18.67
2019-04-11T11:09:46.325Z,19.43
2019-04-11T11:12:35.151Z,22.00
2019-04-11T11:15:09.893Z,21.00
2019-04-11T11:18:35.109Z,19.73
2019-04-11T11:20:59.260Z,20.20
2019-04-11T11:23:45.410Z,21.43
2019-04-11T11:26:24.250Z,19.53
2019-04-11T11:29:15.218Z,18.70
2019-04-11T11:31:56.472Z,19.90
2019-04-11T11:34:48.991Z,20.10
2019-04-11T11:37:33.564Z,20.67
2019-04-11T11:40:21.916Z,21.40
2019-04-11T11:43:19.104Z,18.70
2019-04-11T11:46:14.071Z,21.30
2019-04-11T11:48:48.860Z,21.40
2019-04-11T11:51:23.875Z,21.37
2019-04-11T11:54:13.633Z,21.53
2019-04-11T11:56:44.428Z,21.20
2019-04-11T11:59:36.485Z,22.50
2019-04-11T12:02:15.779Z,21.67
2019-04-11T12:04:52.629Z,21.87
2019-04-11T12:07:26.234Z,20.67
2019-04-11T12:10:13.397Z,21.13
2019-04-11T12:12:56.940Z,21.67
2019-04-11T12:15:43.742Z,22.73
2019-04-11T12:18:32.933Z,22.13
2019-04-11T12:21:05.144Z,21.17
2019-04-11T12:23:58.115Z,23.80
2019-04-11T12:26:22.112Z,23.07
2019-04-11T12:29:08.833Z,22.73
2019-04-11T12:31:40.379Z,22.23
2019-04-11T12:34:28.447Z,23.67
2019-04-11T12:36:57.898Z,25.93
2019-04-11T12:40:04.495Z,23.37
2019-04-11T12:42:36.326Z,23.50
2019-04-11T12:45:42.769Z,23.00
2019-04-11T12:48:12.215Z,24.10
2019-04-11T12:50:59.092Z,23.73
2019-04-11T12:53:28.436Z,22.67
2019-04-11T12:56:08.455Z,23.77
2019-04-11T12:58:42.797Z,22.93
2019-04-11T13:01:33.399Z,24.50
2019-04-11T13:04:18.655Z,25.47
2019-04-11T13:07:00.690Z,25.53
2019-04-11T13:09:57.994Z,26.90
2019-04-11T13:12:35.388Z,24.30
2019-04-11T13:15:26.581Z,25.53
2019-04-11T13:18:02.911Z,24.33
2019-04-11T13:20:54.942Z,27.13
2019-04-11T13:23:32.343Z,27.40
2019-04-11T13:26:16.974Z,24.77
2019-04-11T13:28:47.698Z,26.77
2019-04-11T13:31:34.447Z,27.13
2019-04-11T13:34:05.106Z,27.67
2019-04-11T13:36:51.670Z,29.60
2019-04-11T13:39:20.807Z,28.37
2019-04-11T13:42:07.405Z,27.27
2019-04-11T13:44:38.768Z,28.40
2019-04-11T13:47:25.430Z,27.27
2019-04-11T13:49:56.879Z,28.43
2019-04-11T13:52:45.074Z,29.10
2019-04-11T13:55:31.853Z,27.27
2019-04-11T13:58:18.538Z,28.43
2019-04-11T14:00:49.110Z,28.60
2019-04-11T14:03:49.419Z,28.67
2019-04-11T14:06:33.139Z,27.50
2019-04-11T14:09:24.059Z,26.60
2019-04-11T14:12:15.850Z,30.47
2019-04-11T14:14:48.075Z,28.00
2019-04-11T14:17:36.183Z,27.77
2019-04-11T14:20:29.792Z,28.07
2019-04-11T14:23:14.867Z,28.70
2019-04-11T14:26:07.148Z,29.20
2019-04-11T14:28:39.822Z,28.20
2019-04-11T14:31:22.272Z,27.80
2019-04-11T14:33:55.981Z,29.90
2019-04-11T14:36:43.451Z,27.93
2019-04-11T14:39:14.551Z,30.80
2019-04-11T14:42:02.691Z,28.83
2019-04-11T14:44:32.191Z,29.50
2019-04-11T14:47:19.634Z,28.17
2019-04-11T14:49:52.390Z,30.40
2019-04-11T14:52:46.518Z,28.97
2019-04-11T14:55:14.518Z,29.27
2019-04-11T14:57:53.845Z,28.37
2019-04-11T15:00:27.062Z,28.70
2019-04-11T15:03:24.498Z,29.80
2019-04-11T15:06:09.773Z,30.30
2019-04-11T15:08:58.947Z,29.07
2019-04-11T15:11:41.649Z,29.13
2019-04-11T15:14:20.738Z,29.90
2019-04-11T15:17:09.991Z,29.17
2019-04-11T15:19:39.410Z,30.63
2019-04-11T15:22:26.929Z,28.13
2019-04-11T15:25:00.794Z,27.83
2019-04-11T15:27:47.627Z,29.17
2019-04-11T15:30:18.055Z,27.70
2019-04-11T15:33:05.158Z,30.30
2019-04-11T15:35:34.311Z,30.00
2019-04-11T15:38:21.290Z,29.30
2019-04-11T15:40:54.139Z,31.87
2019-04-11T15:43:43.287Z,29.53
2019-04-11T15:46:17.594Z,31.20
2019-04-11T15:49:05.976Z,31.60
2019-04-11T15:51:42.614Z,30.23
2019-04-11T15:54:30.875Z,31.93
2019-04-11T15:57:12.227Z,29.67
2019-04-11T15:59:59.440Z,28.53
2019-04-11T16:02:53.344Z,29.93
2019-04-11T16:05:47.258Z,31.50
2019-04-11T16:08:41.877Z,29.77
2019-04-11T16:11:27.883Z,28.50
2019-04-11T16:14:05.320Z,29.77
2019-04-11T16:17:02.662Z,28.40
2019-04-11T16:19:47.621Z,30.60
2019-04-11T16:22:32.317Z,30.83
2019-04-11T16:25:04.086Z,30.70
2019-04-11T16:28:01.349Z,28.70
2019-04-11T16:30:31.069Z,27.83
2019-04-11T16:33:19.146Z,29.63
2019-04-11T16:36:00.950Z,28.83
2019-04-11T16:38:32.094Z,30.40
2019-04-11T16:41:18.587Z,28.93
2019-04-11T16:43:54.675Z,30.30
2019-04-11T16:46:49.926Z,29.50
2019-04-11T16:49:18.913Z,29.37
2019-04-11T16:51:47.898Z,31.00
2019-04-11T16:54:16.803Z,27.80
2019-04-11T16:56:45.749Z,30.30
2019-04-11T16:59:14.756Z,31.90
2019-04-11T17:01:43.738Z,31.00
2019-04-11T17:04:12.687Z,29.43
2019-04-11T17:07:10.610Z,28.37
2019-04-11T17:09:42.971Z,28.83
2019-04-11T17:12:11.975Z,29.47
2019-04-11T17:14:41.033Z,26.97
2019-04-11T17:17:15.251Z,27.73
2019-04-11T17:19:40.946Z,27.87
2019-04-11T17:22:10.009Z,30.03
2019-04-11T17:24:39.029Z,27.10
2019-04-11T17:27:08.036Z,26.90
2019-04-11T17:29:37.238Z,29.07
2019-04-11T17:32:06.352Z,28.20
2019-04-11T17:34:35.539Z,26.07
2019-04-11T17:37:04.542Z,28.50
2019-04-11T17:39:36.414Z,25.80
2019-04-11T17:42:04.391Z,28.83
2019-04-11T17:44:33.803Z,28.67
2019-04-11T17:47:02.842Z,27.17
2019-04-11T17:49:31.958Z,27.60
2019-04-11T17:52:04.964Z,28.40
2019-04-11T17:54:32.187Z,28.83
2019-04-11T17:57:01.147Z,29.83
2019-04-11T17:59:30.209Z,30.97
2019-04-11T18:01:59.377Z,29.10
2019-04-11T18:04:28.327Z,26.47
2019-04-11T18:06:57.326Z,26.83
2019-04-11T18:09:26.612Z,26.40
2019-04-11T18:11:56.237Z,25.67
2019-04-11T18:14:25.874Z,25.73
2019-04-11T18:16:54.798Z,25.73
2019-04-11T18:19:23.970Z,26.27
2019-04-11T18:21:53.044Z,24.07
2019-04-11T18:24:22.147Z,22.90
2019-04-11T18:26:51.950Z,23.93
2019-04-11T18:29:23.045Z,23.70
2019-04-11T18:31:52.248Z,22.00
2019-04-11T18:34:21.501Z,22.67
2019-04-11T18:36:50.485Z,23.70
2019-04-11T18:39:20.074Z,22.77
2019-04-11T18:41:49.105Z,22.30
2019-04-11T18:44:18.754Z,22.40
2019-04-11T18:46:48.003Z,22.30
2019-04-11T18:49:19.483Z,20.73
2019-04-11T18:51:48.482Z,21.87
2019-04-11T18:54:17.566Z,21.10
2019-04-11T18:56:46.568Z,22.33
2019-04-11T18:59:15.744Z,19.90
2019-04-11T19:01:44.670Z,21.17
2019-04-11T19:04:13.811Z,21.63
2019-04-11T19:06:43.597Z,21.93
2019-04-11T19:09:14.824Z,21.67
2019-04-11T19:11:46.240Z,21.97
2019-04-11T19:14:16.142Z,22.67
2019-04-11T19:16:46.744Z,19.90
2019-04-11T19:19:18.565Z,21.47
2019-04-11T19:21:50.727Z,20.33
2019-04-11T19:24:18.048Z,19.63
2019-04-11T19:26:47.206Z,20.90
2019-04-11T19:29:16.191Z,20.70
2019-04-11T19:31:45.259Z,21.63
2019-04-11T19:34:14.331Z,20.00
2019-04-11T19:36:43.549Z,20.47
2019-04-11T19:39:13.940Z,20.67
2019-04-11T19:41:47.822Z,20.47
2019-04-11T19:44:16.845Z,20.53
2019-04-11T19:46:48.474Z,22.80
2019-04-11T19:49:17.539Z,20.13
2019-04-11T19:51:46.831Z,20.10
2019-04-11T19:54:15.867Z,21.10
2019-04-11T19:56:52.090Z,19.20
2019-04-11T19:59:21.079Z,21.20
2019-04-11T20:01:50.787Z,20.10
2019-04-11T20:04:23.656Z,19.47
2019-04-11T20:06:51.555Z,21.00
2019-04-11T20:09:20.534Z,20.83
2019-04-11T20:11:49.544Z,19.23
2019-04-11T20:14:18.530Z,20.33
2019-04-11T20:16:49.044Z,17.90
2019-04-11T20:19:18.252Z,19.53
2019-04-11T20:21:47.330Z,19.20
2019-04-11T20:24:16.282Z,18.60
2019-04-11T20:26:45.347Z,19.70
2019-04-11T20:29:14.389Z,18.30
2019-04-11T20:31:43.382Z,19.70
2019-04-11T20:34:12.311Z,17.63
2019-04-11T20:36:41.868Z,19.23
2019-04-11T20:39:14.902Z,17.43
2019-04-11T20:41:41.683Z,20.50
2019-04-11T20:44:10.723Z,19.23
2019-04-11T20:46:39.797Z,19.30
2019-04-11T20:49:08.846Z,19.17
2019-04-11T20:51:37.807Z,18.70
2019-04-11T20:54:07.824Z,19.10
2019-04-11T20:56:39.857Z,18.30
2019-04-11T20:59:10.048Z,17.13
2019-04-11T21:01:38.413Z,18.73
2019-04-11T21:04:07.340Z,18.50
2019-04-11T21:06:36.415Z,18.73
2019-04-11T21:09:09.036Z,17.70
2019-04-11T21:11:38.014Z,18.00
2019-04-11T21:14:07.106Z,16.97
2019-04-11T21:16:36.027Z,17.07
2019-04-11T21:19:06.990Z,16.17
2019-04-11T21:21:36.127Z,17.73
2019-04-11T21:24:05.200Z,19.93
2019-04-11T21:26:34.181Z,17.40
2019-04-11T21:29:03.125Z,18.03
2019-04-11T21:31:32.110Z,17.90
2019-04-11T21:34:02.271Z,18.00
2019-04-11T21:36:32.280Z,19.77
2019-04-11T21:39:03.534Z,17.63
2019-04-11T21:41:36.090Z,16.33
2019-04-11T21:44:05.835Z,17.33
2019-04-11T21:46:37.307Z,17.90
2019-04-11T21:49:06.401Z,18.00
2019-04-11T21:51:34.863Z,16.63
2019-04-11T21:54:03.849Z,17.00
2019-04-11T21:56:32.863Z,18.13
2019-04-11T21:59:01.938Z,17.07
2019-04-11T22:01:31.978Z,18.07
2019-04-11T22:04:01.079Z,17.90
2019-04-11T22:06:30.535Z,17.60
2019-04-11T22:09:00.350Z,18.23
2019-04-11T22:11:29.540Z,18.97
2019-04-11T22:13:58.629Z,18.30
2019-04-11T22:16:27.691Z,18.60
2019-04-11T22:18:56.691Z,16.50
2019-04-11T22:21:25.682Z,17.90
2019-04-11T22:23:54.647Z,16.03
2019-04-11T22:26:23.556Z,18.10
2019-04-11T22:28:54.941Z,16.90
